Time;durP1;ratioP1;P1;durP2;ratioP2;P2;SDS_P1;SDS_P2;PMS_P1;PMS_P2;Temp;Humidity;BMP_temperature;BMP_pressure;BME280_temperature;BME280_humidity;BME280_pressure;Samples;Min_cycle;Max_cycle;Signal;HPM_P1;HPM_P2
2023/07/23 00:01:12;;;;;;;;;;;;;;;23.31;33.83;99808.63;6156867;23;19929;-67
2023/07/23 00:03:37;;;;;;;;;;;;;;;23.22;34.65;99810.41;6130254;23;20341;-67
2023/07/23 00:06:02;;;;;;;;;;;;;;;23.23;34.47;99805.72;6129800;23;19913;-67
2023/07/23 00:08:27;;;;;;;;;;;;;;;23.22;34.10;99813.13;6130125;23;19915;-67
2023/07/23 00:10:57;;;;;;;;;;;;;;;23.18;34.17;99810.16;6156430;23;19909;-67
2023/07/23 00:13:23;;;;;;;;;;;;;;;23.18;34.37;99810.16;6156520;23;19914;-66
2023/07/23 00:15:48;;;;;;;;;;;;;;;23.15;34.11;99815.41;6156247;23;19948;-66
2023/07/23 00:18:13;;;;;;;;;;;;;;;23.14;34.66;99811.03;6156457;23;19971;-66
2023/07/23 00:20:38;;;;;;;;;;;;;;;23.13;34.27;99812.16;6156290;23;20282;-66
2023/07/23 00:23:04;;;;;;;;;;;;;;;23.06;34.05;99812.50;6130204;23;19916;-66
2023/07/23 00:25:29;;;;;;;;;;;;;;;23.00;34.09;99817.19;6156489;23;19931;-66
2023/07/23 00:27:54;;;;;;;;;;;;;;;23.05;34.39;99808.16;6156315;23;19950;-67
2023/07/23 00:30:19;;;;;;;;;;;;;;;23.03;34.19;99802.13;6156588;23;19956;-67
2023/07/23 00:32:45;;;;;;;;;;;;;;;23.03;34.37;99807.59;6156347;23;19915;-67
2023/07/23 00:35:10;;;;;;;;;;;;;;;23.05;34.41;99802.66;6156414;23;19909;-67
2023/07/23 00:37:35;;;;;;;;;;;;;;;22.99;34.66;99804.63;6156231;23;20035;-67
2023/07/23 00:40:01;;;;;;;;;;;;;;;22.91;34.73;99804.44;6156430;23;19909;-66
2023/07/23 00:42:26;;;;;;;;;;;;;;;22.81;34.35;99805.38;6156229;23;19909;-66
2023/07/23 00:44:52;;;;;;;;;;;;;;;22.77;34.32;99812.53;6156151;23;19916;-67
2023/07/23 00:47:17;;;;;;;;;;;;;;;22.71;34.31;99813.72;6155269;23;19916;-66
2023/07/23 00:49:43;;;;;;;;;;;;;;;22.66;34.49;99808.28;6156060;23;19909;-66
2023/07/23 00:52:09;;;;;;;;;;;;;;;22.63;34.66;99811.63;6156597;23;19954;-67
2023/07/23 00:54:34;;;;;;;;;;;;;;;22.57;34.81;99816.31;6157055;23;20003;-66
2023/07/23 00:57:00;;;;;;;;;;;;;;;22.54;34.95;99819.63;6158241;23;19919;-67
2023/07/23 00:59:29;;;;;;;;;;;;;;;22.51;34.66;99814.72;6158654;23;19916;-67
2023/07/23 01:01:55;;;;;;;;;;;;;;;22.56;34.60;99814.69;6157737;23;19947;-65
2023/07/23 01:04:20;;;;;;;;;;;;;;;22.50;34.71;99810.38;6156947;23;19916;-67
2023/07/23 01:06:46;;;;;;;;;;;;;;;22.47;34.56;99814.50;6156889;23;19944;-67
2023/07/23 01:09:12;;;;;;;;;;;;;;;22.40;34.65;99811.31;6156451;23;20410;-66
2023/07/23 01:11:38;;;;;;;;;;;;;;;22.37;35.30;99814.59;6156323;23;19908;-67
2023/07/23 01:14:03;;;;;;;;;;;;;;;22.31;34.46;99813.03;6129879;23;20035;-67
2023/07/23 01:16:29;;;;;;;;;;;;;;;22.25;34.67;99812.22;6156122;23;19913;-67
2023/07/23 01:18:55;;;;;;;;;;;;;;;22.16;34.91;99811.22;6155577;23;19913;-67
2023/07/23 01:21:20;;;;;;;;;;;;;;;22.12;34.81;99812.88;6155966;23;19908;-67
2023/07/23 01:23:45;;;;;;;;;;;;;;;22.12;35.37;99807.41;6156035;23;19980;-67
2023/07/23 01:26:11;;;;;;;;;;;;;;;22.12;35.02;99805.50;6129795;23;19909;-67
2023/07/23 01:28:37;;;;;;;;;;;;;;;22.07;35.25;99802.81;6156212;23;19908;-67
2023/07/23 01:31:03;;;;;;;;;;;;;;;22.04;34.86;99811.56;6155752;23;20390;-67
2023/07/23 01:33:28;;;;;;;;;;;;;;;22.02;35.15;99814.59;6155516;23;19909;-67
2023/07/23 01:35:55;;;;;;;;;;;;;;;21.98;35.63;99812.72;6155958;23;19919;-67
2023/07/23 01:38:21;;;;;;;;;;;;;;;21.96;35.67;99807.53;6156120;23;19908;-67
2023/07/23 01:40:47;;;;;;;;;;;;;;;21.97;35.20;99808.34;6129858;23;19916;-67
2023/07/23 01:43:12;;;;;;;;;;;;;;;21.95;35.21;99805.09;6155906;23;19908;-67
2023/07/23 01:45:41;;;;;;;;;;;;;;;21.93;35.12;99813.56;6155935;23;20479;-67
2023/07/23 01:48:06;;;;;;;;;;;;;;;21.92;35.31;99813.88;6154820;23;20237;-67
2023/07/23 01:50:31;;;;;;;;;;;;;;;21.91;35.41;99809.50;6155165;23;19988;-67
2023/07/23 01:52:57;;;;;;;;;;;;;;;21.94;35.24;99800.72;6129502;23;19908;-67
2023/07/23 01:55:22;;;;;;;;;;;;;;;21.91;35.11;99804.03;6129334;23;19909;-67
2023/07/23 01:57:47;;;;;;;;;;;;;;;21.85;34.87;99806.78;6155174;23;19943;-67
2023/07/23 02:00:13;;;;;;;;;;;;;;;21.79;35.49;99807.94;6155176;23;19916;-67
2023/07/23 02:02:38;;;;;;;;;;;;;;;21.79;35.69;99804.41;6155063;23;19917;-67
2023/07/23 02:05:03;;;;;;;;;;;;;;;21.80;35.55;99811.47;6155383;23;20223;-67
2023/07/23 02:07:29;;;;;;;;;;;;;;;21.74;35.54;99807.97;6155559;23;19915;-67
2023/07/23 02:09:54;;;;;;;;;;;;;;;21.68;35.78;99811.03;6129411;23;19916;-67
2023/07/23 02:12:19;;;;;;;;;;;;;;;21.61;35.47;99812.16;6155532;23;20242;-67
2023/07/23 02:14:45;;;;;;;;;;;;;;;21.61;35.13;99820.34;6155841;23;19913;-67
2023/07/23 02:17:10;;;;;;;;;;;;;;;21.60;35.40;99812.44;6155665;23;19913;-67
2023/07/23 02:19:36;;;;;;;;;;;;;;;21.53;35.60;99810.03;6155776;23;20305;-67
2023/07/23 02:22:02;;;;;;;;;;;;;;;21.54;36.09;99819.03;6155533;23;19909;-67
2023/07/23 02:24:29;;;;;;;;;;;;;;;21.53;35.67;99811.97;6155762;23;19955;-67
2023/07/23 02:26:54;;;;;;;;;;;;;;;21.54;35.61;99817.13;6155652;23;19916;-67
2023/07/23 02:29:19;;;;;;;;;;;;;;;21.52;35.86;99810.31;6155773;23;19908;-67
2023/07/23 02:31:45;;;;;;;;;;;;;;;21.52;36.31;99813.03;6155220;23;19912;-67
2023/07/23 02:34:10;;;;;;;;;;;;;;;21.51;35.95;99822.31;6155101;23;19908;-67
2023/07/23 02:36:35;;;;;;;;;;;;;;;21.50;35.84;99813.31;6155376;23;19916;-67
2023/07/23 02:39:00;;;;;;;;;;;;;;;21.52;36.02;99813.84;6155675;23;19916;-67
2023/07/23 02:41:26;;;;;;;;;;;;;;;21.59;35.83;99810.81;6155240;23;19908;-67
2023/07/23 02:43:52;;;;;;;;;;;;;;;21.64;36.13;99811.59;6154708;23;20223;-67
2023/07/23 02:46:18;;;;;;;;;;;;;;;21.65;35.80;99805.00;6155147;23;20326;-67
2023/07/23 02:48:43;;;;;;;;;;;;;;;21.68;35.89;99811.03;6154268;23;19909;-67
2023/07/23 02:51:08;;;;;;;;;;;;;;;21.71;35.91;99807.72;6155175;23;19991;-67
2023/07/23 02:53:34;;;;;;;;;;;;;;;21.71;35.78;99805.00;6155299;23;19915;-67
2023/07/23 02:55:59;;;;;;;;;;;;;;;21.76;36.00;99813.97;6155317;23;19979;-67
2023/07/23 02:58:24;;;;;;;;;;;;;;;21.77;35.75;99814.81;6129415;23;19936;-67
2023/07/23 03:00:49;;;;;;;;;;;;;;;21.66;35.67;99808.59;6155489;23;19909;-67
2023/07/23 03:03:15;;;;;;;;;;;;;;;21.63;36.05;99806.41;6155245;23;20332;-67
2023/07/23 03:05:42;;;;;;;;;;;;;;;21.59;35.75;99808.88;6155366;23;19908;-67
2023/07/23 03:08:07;;;;;;;;;;;;;;;21.54;35.78;99811.66;6155370;23;19908;-67
2023/07/23 03:10:33;;;;;;;;;;;;;;;21.54;36.03;99808.09;6155202;23;19915;-67
2023/07/23 03:12:58;;;;;;;;;;;;;;;21.60;35.82;99807.81;6155748;23;19909;-67
2023/07/23 03:15:23;;;;;;;;;;;;;;;21.59;35.78;99803.44;6155537;23;19914;-67
2023/07/23 03:17:50;;;;;;;;;;;;;;;21.54;36.26;99806.19;6155106;23;19909;-67
2023/07/23 03:20:16;;;;;;;;;;;;;;;21.54;35.82;99803.44;6155058;23;19916;-67
2023/07/23 03:22:41;;;;;;;;;;;;;;;21.56;36.15;99797.72;6154970;23;20192;-67
2023/07/23 03:25:07;;;;;;;;;;;;;;;21.54;36.12;99805.38;6155036;23;19915;-67
2023/07/23 03:27:32;;;;;;;;;;;;;;;21.52;36.13;99804.84;6154973;23;19909;-67
2023/07/23 03:29:57;;;;;;;;;;;;;;;21.51;36.24;99804.03;6154853;23;19909;-67
2023/07/23 03:32:23;;;;;;;;;;;;;;;21.47;36.45;99808.44;6155024;23;20021;-67
2023/07/23 03:34:48;;;;;;;;;;;;;;;21.44;36.27;99804.34;6128729;23;19909;-67
2023/07/23 03:37:13;;;;;;;;;;;;;;;21.42;36.22;99813.91;6154804;23;19920;-67
2023/07/23 03:39:39;;;;;;;;;;;;;;;21.40;36.20;99814.16;6155152;23;20218;-67
2023/07/23 03:42:06;;;;;;;;;;;;;;;21.40;36.26;99811.44;6155753;23;19935;-67
2023/07/23 03:44:32;;;;;;;;;;;;;;;21.41;36.32;99813.09;6156564;23;19913;-67
2023/07/23 03:47:09;;;;;;;;;;;;;;;21.49;36.61;99814.44;6155903;23;19920;-67
2023/07/23 03:49:34;;;;;;;;;;;;;;;21.60;36.50;99810.53;6156587;23;19908;-67
2023/07/23 03:51:59;;;;;;;;;;;;;;;21.70;36.42;99815.13;6156401;23;19909;-67
2023/07/23 03:54:25;;;;;;;;;;;;;;;21.81;36.55;99815.88;6156912;23;19940;-67
2023/07/23 03:56:51;;;;;;;;;;;;;;;21.91;36.32;99820.44;6156486;23;19916;-67
2023/07/23 03:59:17;;;;;;;;;;;;;;;22.04;36.36;99811.56;6130818;23;19958;-67
2023/07/23 04:01:42;;;;;;;;;;;;;;;22.09;36.45;99813.47;6156280;23;19964;-67
2023/07/23 04:04:07;;;;;;;;;;;;;;;22.22;36.37;99815.53;6157026;23;19909;-67
2023/07/23 04:06:33;;;;;;;;;;;;;;;22.29;36.02;99817.94;6156562;23;19990;-67
2023/07/23 04:08:58;;;;;;;;;;;;;;;22.33;36.56;99808.09;6156329;23;19909;-67
2023/07/23 04:11:23;;;;;;;;;;;;;;;22.40;36.19;99806.63;6156817;23;19932;-67
2023/07/23 04:13:50;;;;;;;;;;;;;;;22.48;36.16;99809.84;6156887;23;20207;-67
2023/07/23 04:16:15;;;;;;;;;;;;;;;22.57;36.21;99799.91;6156715;23;19974;-67
2023/07/23 04:18:48;;;;;;;;;;;;;;;22.67;36.10;99807.19;6156588;23;20298;-67
2023/07/23 04:21:13;;;;;;;;;;;;;;;22.80;36.23;99810.03;6130065;23;19909;-67
2023/07/23 04:23:39;;;;;;;;;;;;;;;22.88;35.91;99805.03;6156156;23;19914;-67
2023/07/23 04:26:05;;;;;;;;;;;;;;;22.87;35.86;99800.66;6155752;23;19919;-66
2023/07/23 04:28:30;;;;;;;;;;;;;;;22.90;36.35;99805.53;6156328;23;19909;-66
2023/07/23 04:30:55;;;;;;;;;;;;;;;22.92;36.36;99806.91;6156189;23;19987;-66
2023/07/23 04:33:21;;;;;;;;;;;;;;;22.98;36.23;99813.13;6155999;23;19940;-66
2023/07/23 04:35:46;;;;;;;;;;;;;;;23.06;36.12;99814.44;6156071;23;19920;-66
2023/07/23 04:38:11;;;;;;;;;;;;;;;23.13;36.02;99807.47;6156702;23;19915;-66
2023/07/23 04:40:36;;;;;;;;;;;;;;;23.16;35.52;99811.53;6156690;23;19940;-67
2023/07/23 04:43:03;;;;;;;;;;;;;;;23.21;35.76;99816.16;6156642;23;19939;-67
2023/07/23 04:45:28;;;;;;;;;;;;;;;23.25;35.87;99809.78;6156452;23;20211;-67
2023/07/23 04:47:53;;;;;;;;;;;;;;;23.29;35.52;99808.13;6155707;23;19987;-67
2023/07/23 04:50:19;;;;;;;;;;;;;;;23.32;35.52;99815.72;6156364;23;20311;-67
2023/07/23 04:52:44;;;;;;;;;;;;;;;23.35;35.92;99809.66;6156191;23;19917;-67
2023/07/23 04:55:09;;;;;;;;;;;;;;;23.40;35.97;99811.50;6129938;23;19924;-67
2023/07/23 04:57:35;;;;;;;;;;;;;;;23.43;35.65;99818.34;6156140;23;19967;-66
2023/07/23 05:00:00;;;;;;;;;;;;;;;23.50;35.47;99827.00;6156077;23;20331;-66
2023/07/23 05:02:25;;;;;;;;;;;;;;;23.54;35.66;99822.56;6155903;23;19991;-66
2023/07/23 05:04:51;;;;;;;;;;;;;;;23.54;35.26;99823.38;6156025;23;19932;-66
2023/07/23 05:07:16;;;;;;;;;;;;;;;23.58;35.54;99823.59;6156370;23;19908;-66
2023/07/23 05:09:42;;;;;;;;;;;;;;;23.62;35.31;99818.34;6156071;23;20286;-66
2023/07/23 05:12:08;;;;;;;;;;;;;;;23.63;35.10;99820.78;6156313;23;20218;-67
2023/07/23 05:14:35;;;;;;;;;;;;;;;23.65;35.12;99812.28;6129999;23;19909;-66
2023/07/23 05:17:00;;;;;;;;;;;;;;;23.66;35.18;99808.41;6156236;23;20003;-66
2023/07/23 05:19:26;;;;;;;;;;;;;;;23.75;35.33;99823.06;6155982;23;19936;-66
2023/07/23 05:21:53;;;;;;;;;;;;;;;23.73;34.76;99814.31;6156283;23;19916;-66
2023/07/23 05:24:18;;;;;;;;;;;;;;;23.76;35.09;99813.75;6155883;23;19909;-66
2023/07/23 05:26:43;;;;;;;;;;;;;;;23.76;35.12;99819.22;6155987;23;19909;-67
2023/07/23 05:29:09;;;;;;;;;;;;;;;23.74;34.98;99810.50;6156313;23;19913;-66
2023/07/23 05:31:35;;;;;;;;;;;;;;;23.78;35.19;99811.50;6156327;23;19920;-66
2023/07/23 05:34:00;;;;;;;;;;;;;;;23.81;35.05;99821.09;6155950;23;19908;-66
2023/07/23 05:36:25;;;;;;;;;;;;;;;23.87;35.04;99819.91;6156091;23;19963;-67
2023/07/23 05:38:50;;;;;;;;;;;;;;;23.92;35.29;99815.16;6157206;23;20223;-67
2023/07/23 05:41:16;;;;;;;;;;;;;;;23.93;35.10;99818.72;6156839;23;19964;-67
2023/07/23 05:43:41;;;;;;;;;;;;;;;23.95;34.77;99816.50;6156686;23;20234;-67
2023/07/23 05:46:06;;;;;;;;;;;;;;;23.98;34.93;99821.38;6155678;23;19908;-67
2023/07/23 05:48:32;;;;;;;;;;;;;;;24.06;34.79;99819.88;6155295;23;19931;-67
2023/07/23 05:50:57;;;;;;;;;;;;;;;24.13;35.26;99817.56;6155836;23;19916;-67
2023/07/23 05:53:23;;;;;;;;;;;;;;;24.25;35.00;99819.84;6155790;23;19908;-66
2023/07/23 05:55:48;;;;;;;;;;;;;;;24.31;34.79;99824.09;6155435;23;20273;-66
2023/07/23 05:58:13;;;;;;;;;;;;;;;24.37;34.62;99822.09;6155565;23;19932;-66
2023/07/23 06:00:38;;;;;;;;;;;;;;;24.38;34.69;99818.25;6155563;23;19908;-66
2023/07/23 06:03:04;;;;;;;;;;;;;;;24.43;34.73;99818.16;6124411;23;19916;-66
2023/07/23 06:05:29;;;;;;;;;;;;;;;24.43;34.60;99823.66;6125882;23;20212;-66
2023/07/23 06:07:54;;;;;;;;;;;;;;;24.44;35.08;99820.59;6126120;23;20255;-66
2023/07/23 06:10:20;;;;;;;;;;;;;;;24.49;34.41;99825.97;6124501;23;19916;-66
2023/07/23 06:12:45;;;;;;;;;;;;;;;24.50;34.64;99818.56;6125900;23;19912;-66
2023/07/23 06:15:10;;;;;;;;;;;;;;;24.57;34.51;99831.94;6126034;23;19916;-66
2023/07/23 06:17:35;;;;;;;;;;;;;;;24.59;34.78;99824.19;6126411;23;19952;-66
2023/07/23 06:20:01;;;;;;;;;;;;;;;24.66;34.81;99830.91;6125930;23;19909;-66
2023/07/23 06:22:26;;;;;;;;;;;;;;;24.75;34.55;99825.53;6126370;23;19909;-66
2023/07/23 06:24:51;;;;;;;;;;;;;;;24.71;34.45;99832.75;6125980;23;19916;-66
2023/07/23 06:27:16;;;;;;;;;;;;;;;24.77;34.79;99831.53;6124452;23;19962;-66
2023/07/23 06:29:42;;;;;;;;;;;;;;;24.84;34.45;99831.16;6125895;23;19936;-66
2023/07/23 06:32:08;;;;;;;;;;;;;;;24.91;34.41;99826.06;6125805;23;20311;-66
2023/07/23 06:34:33;;;;;;;;;;;;;;;24.98;34.67;99831.13;6126021;23;19909;-66
2023/07/23 06:36:58;;;;;;;;;;;;;;;25.07;34.61;99827.38;6125880;23;19920;-66
2023/07/23 06:39:23;;;;;;;;;;;;;;;25.15;34.78;99827.75;6126012;23;20227;-66
2023/07/23 06:41:49;;;;;;;;;;;;;;;25.21;34.36;99823.81;6124104;23;19957;-66
2023/07/23 06:44:14;;;;;;;;;;;;;;;25.25;34.41;99820.16;6124243;23;19913;-66
2023/07/23 06:46:40;;;;;;;;;;;;;;;25.36;34.58;99820.75;6125212;23;20371;-66
2023/07/23 06:49:05;;;;;;;;;;;;;;;25.43;34.51;99823.91;6126060;23;19909;-66
2023/07/23 06:51:30;;;;;;;;;;;;;;;25.46;33.99;99820.53;6126107;23;19931;-66
2023/07/23 06:53:55;;;;;;;;;;;;;;;25.44;34.29;99822.75;6125828;23;20246;-66
2023/07/23 06:56:21;;;;;;;;;;;;;;;25.37;33.79;99821.56;6125841;23;19919;-66
2023/07/23 06:58:47;;;;;;;;;;;;;;;25.39;33.81;99813.81;6124214;23;19909;-66
2023/07/23 07:01:12;;;;;;;;;;;;;;;25.38;33.98;99824.00;6125765;23;19909;-66
2023/07/23 07:03:37;;;;;;;;;;;;;;;25.46;34.11;99823.28;6154280;23;19924;-66
2023/07/23 07:06:04;;;;;;;;;;;;;;;25.58;33.80;99821.94;6155376;23;19913;-66
2023/07/23 07:08:29;;;;;;;;;;;;;;;25.63;33.83;99824.53;6155666;23;19913;-66
2023/07/23 07:10:58;;;;;;;;;;;;;;;25.61;33.74;99821.28;6155013;23;19917;-66
2023/07/23 07:13:23;;;;;;;;;;;;;;;25.67;33.78;99820.88;6155150;23;20306;-67
2023/07/23 07:15:49;;;;;;;;;;;;;;;25.65;33.24;99823.13;6154448;23;19919;-67
2023/07/23 07:18:14;;;;;;;;;;;;;;;25.67;33.57;99825.56;6156473;23;19913;-67
2023/07/23 07:20:39;;;;;;;;;;;;;;;25.65;33.65;99822.31;6157132;23;19979;-67
2023/07/23 07:23:05;;;;;;;;;;;;;;;25.65;33.76;99825.06;6157099;23;20233;-67
2023/07/23 07:25:30;;;;;;;;;;;;;;;25.60;33.54;99825.19;6130328;23;19909;-68
2023/07/23 07:27:55;;;;;;;;;;;;;;;25.46;34.35;99823.28;6156908;23;19909;-68
2023/07/23 07:30:20;;;;;;;;;;;;;;;25.38;34.05;99825.94;6156709;23;20254;-67
2023/07/23 07:32:46;;;;;;;;;;;;;;;25.34;33.89;99824.94;6156870;23;19943;-67
2023/07/23 07:35:11;;;;;;;;;;;;;;;25.29;34.00;99815.66;6156882;23;19930;-67
2023/07/23 07:37:36;;;;;;;;;;;;;;;25.28;34.31;99819.53;6156963;23;19995;-67
2023/07/23 07:40:02;;;;;;;;;;;;;;;25.23;34.28;99821.56;6157085;23;19908;-67
2023/07/23 07:42:27;;;;;;;;;;;;;;;25.20;34.37;99824.91;6130699;23;19908;-67
2023/07/23 07:44:52;;;;;;;;;;;;;;;25.12;34.33;99821.75;6157143;23;20293;-67
2023/07/23 07:47:17;;;;;;;;;;;;;;;25.16;34.22;99824.72;6155771;23;19931;-67
2023/07/23 07:49:43;;;;;;;;;;;;;;;25.05;34.42;99821.34;6156602;23;19967;-67
2023/07/23 07:52:08;;;;;;;;;;;;;;;25.09;34.70;99827.88;6156533;23;19908;-67
2023/07/23 07:54:35;;;;;;;;;;;;;;;25.12;34.69;99826.44;6156452;23;19912;-67
2023/07/23 07:57:00;;;;;;;;;;;;;;;25.09;34.72;99821.56;6156289;23;20283;-67
2023/07/23 07:59:26;;;;;;;;;;;;;;;25.08;34.69;99820.75;6156715;23;19913;-66
2023/07/23 08:01:51;;;;;;;;;;;;;;;25.06;34.34;99824.94;6156838;23;20003;-67
2023/07/23 08:04:17;;;;;;;;;;;;;;;25.07;34.39;99818.31;6130682;23;20310;-67
2023/07/23 08:06:42;;;;;;;;;;;;;;;25.10;34.32;99823.19;6131070;23;19908;-67
2023/07/23 08:09:08;;;;;;;;;;;;;;;25.04;34.46;99821.69;6156997;23;20375;-67
2023/07/23 08:11:34;;;;;;;;;;;;;;;25.02;34.42;99818.44;6156136;23;20336;-67
2023/07/23 08:14:00;;;;;;;;;;;;;;;24.88;34.70;99827.47;6156309;23;19908;-66
2023/07/23 08:16:25;;;;;;;;;;;;;;;24.96;34.81;99831.44;6156545;23;20325;-66
2023/07/23 08:18:51;;;;;;;;;;;;;;;24.94;34.70;99833.66;6156641;23;19951;-67
2023/07/23 08:21:17;;;;;;;;;;;;;;;25.08;34.58;99830.94;6156620;23;19909;-67
2023/07/23 08:23:42;;;;;;;;;;;;;;;25.16;34.62;99832.97;6156540;23;19983;-67
2023/07/23 08:26:08;;;;;;;;;;;;;;;25.21;34.29;99823.81;6130293;23;20361;-67
2023/07/23 08:28:37;;;;;;;;;;;;;;;25.17;34.15;99823.59;6130051;23;19909;-66
2023/07/23 08:31:03;;;;;;;;;;;;;;;25.24;33.91;99823.19;6156201;23;19908;-66
2023/07/23 08:33:30;;;;;;;;;;;;;;;25.29;34.09;99820.34;6156697;23;19919;-66
2023/07/23 08:35:55;;;;;;;;;;;;;;;25.29;34.06;99826.66;6155974;23;20349;-66
2023/07/23 08:38:22;;;;;;;;;;;;;;;25.30;34.73;99825.53;6156420;23;19909;-66
2023/07/23 08:40:49;;;;;;;;;;;;;;;25.39;34.76;99830.31;6156581;23;19909;-67
2023/07/23 08:43:30;;;;;;;;;;;;;;;25.48;34.83;99828.44;6156726;23;19913;-67
2023/07/23 08:46:14;;;;;;;;;;;;;;;25.55;34.59;99839.03;6130126;23;19919;-67
2023/07/23 08:48:45;;;;;;;;;;;;;;;25.59;34.50;99835.34;6155633;23;20312;-67
2023/07/23 08:51:10;;;;;;;;;;;;;;;25.68;34.23;99828.00;6156262;23;19989;-67
2023/07/23 08:53:36;;;;;;;;;;;;;;;25.75;34.09;99826.75;6156115;23;19948;-67
2023/07/23 08:56:01;;;;;;;;;;;;;;;25.75;34.26;99830.31;6156061;23;19959;-67
2023/07/23 08:58:26;;;;;;;;;;;;;;;25.81;34.27;99829.06;6156189;23;19909;-66
2023/07/23 09:00:52;;;;;;;;;;;;;;;25.81;34.15;99822.75;6156578;23;20349;-67
2023/07/23 09:03:20;;;;;;;;;;;;;;;25.85;34.04;99832.00;6155930;23;19916;-66
2023/07/23 09:05:45;;;;;;;;;;;;;;;25.90;34.12;99834.66;6156214;23;19912;-66
2023/07/23 09:08:10;;;;;;;;;;;;;;;25.91;33.63;99830.78;6156287;23;20227;-66
2023/07/23 09:10:36;;;;;;;;;;;;;;;25.93;33.43;99831.31;6105694;23;20016;-66
2023/07/23 09:13:11;;;;;;;;;;;;;;;25.78;33.72;99831.63;6105312;23;19914;-66
2023/07/23 09:15:36;;;;;;;;;;;;;;;25.94;33.64;99827.41;6156189;23;19967;-67
2023/07/23 09:18:01;;;;;;;;;;;;;;;26.07;33.41;99834.00;6156180;23;20291;-66
2023/07/23 09:20:26;;;;;;;;;;;;;;;26.00;32.74;99833.59;6156059;23;19909;-67
2023/07/23 09:22:52;;;;;;;;;;;;;;;26.00;33.20;99828.94;6156090;23;20352;-67
2023/07/23 09:25:18;;;;;;;;;;;;;;;26.08;32.90;99830.13;6155931;23;19908;-67
2023/07/23 09:27:43;;;;;;;;;;;;;;;26.07;32.88;99829.28;6155896;23;19915;-67
2023/07/23 09:30:18;;;;;;;;;;;;;;;26.14;32.61;99828.06;6156036;23;19909;-67
2023/07/23 09:32:44;;;;;;;;;;;;;;;26.22;32.98;99824.53;6155522;23;19913;-67
2023/07/23 09:35:09;;;;;;;;;;;;;;;26.40;32.91;99820.75;6155505;23;19996;-67
2023/07/23 09:37:35;;;;;;;;;;;;;;;26.46;32.42;99827.75;6129155;23;19963;-67
2023/07/23 09:40:00;;;;;;;;;;;;;;;26.53;31.82;99818.25;6155310;23;19909;-67
2023/07/23 09:42:25;;;;;;;;;;;;;;;26.55;32.17;99818.75;6155237;23;20303;-67
2023/07/23 09:44:51;;;;;;;;;;;;;;;26.56;31.72;99815.66;6155468;23;19909;-67
2023/07/23 09:47:22;;;;;;;;;;;;;;;26.64;31.92;99825.13;6154723;23;19912;-67
2023/07/23 09:49:48;;;;;;;;;;;;;;;26.75;31.83;99818.19;6155476;23;19916;-67
2023/07/23 09:52:13;;;;;;;;;;;;;;;26.82;31.95;99826.03;6155360;23;19916;-67
2023/07/23 09:54:39;;;;;;;;;;;;;;;26.95;31.30;99821.50;6155146;23;19947;-67
2023/07/23 09:57:06;;;;;;;;;;;;;;;26.93;29.85;99819.09;6155076;23;19916;-67
2023/07/23 09:59:32;;;;;;;;;;;;;;;26.87;30.10;99819.53;6155197;23;19909;-67
2023/07/23 10:01:59;;;;;;;;;;;;;;;27.03;30.60;99810.50;6154399;23;19920;-67
2023/07/23 10:04:25;;;;;;;;;;;;;;;27.22;30.49;99817.69;6154957;23;19998;-67
2023/07/23 10:06:51;;;;;;;;;;;;;;;27.14;30.19;99813.78;6155082;23;19908;-67
2023/07/23 10:09:17;;;;;;;;;;;;;;;27.21;30.16;99816.09;6155024;23;19912;-67
2023/07/23 10:11:42;;;;;;;;;;;;;;;27.20;30.04;99811.69;6154913;23;19908;-67
2023/07/23 10:14:07;;;;;;;;;;;;;;;27.40;30.51;99808.34;6154933;23;19909;-67
2023/07/23 10:16:38;;;;;;;;;;;;;;;27.52;30.64;99818.72;6155346;23;19917;-67
2023/07/23 10:19:06;;;;;;;;;;;;;;;27.68;31.35;99807.22;6129230;23;19931;-67
2023/07/23 10:21:35;;;;;;;;;;;;;;;27.79;29.78;99806.56;6155141;23;19916;-67
2023/07/23 10:24:01;;;;;;;;;;;;;;;27.88;28.78;99798.28;6155689;23;19908;-67
2023/07/23 10:26:30;;;;;;;;;;;;;;;28.06;30.21;99798.28;6155640;23;19931;-67
2023/07/23 10:29:10;;;;;;;;;;;;;;;28.22;28.50;99798.59;6155981;23;19913;-67
2023/07/23 10:31:35;;;;;;;;;;;;;;;28.41;28.73;99796.25;6155380;23;19985;-67
2023/07/23 10:34:01;;;;;;;;;;;;;;;28.59;29.58;99788.75;6155559;23;20415;-67
2023/07/23 10:36:26;;;;;;;;;;;;;;;28.77;28.64;99792.25;6155325;23;20293;-67
2023/07/23 10:39:10;;;;;;;;;;;;;;;28.89;29.20;99788.78;6155645;23;19909;-67
2023/07/23 10:41:49;;;;;;;;;;;;;;;29.09;28.52;99796.28;6129080;23;19913;-67
2023/07/23 10:44:21;;;;;;;;;;;;;;;29.37;27.17;99789.47;6155695;23;20364;-67
2023/07/23 10:46:46;;;;;;;;;;;;;;;29.54;28.36;99775.50;6154794;23;19912;-67
2023/07/23 10:49:18;;;;;;;;;;;;;;;29.81;27.07;99782.47;6129753;23;19959;-67
2023/07/23 10:51:43;;;;;;;;;;;;;;;29.86;27.71;99782.22;6155206;23;19944;-67
2023/07/23 10:54:09;;;;;;;;;;;;;;;30.18;29.73;99778.97;6155168;23;19916;-67
2023/07/23 10:56:35;;;;;;;;;;;;;;;30.38;27.25;99782.88;6155264;23;19951;-67
2023/07/23 10:59:05;;;;;;;;;;;;;;;30.43;26.02;99779.88;6155484;23;20246;-67
2023/07/23 11:01:33;;;;;;;;;;;;;;;30.79;26.97;99781.06;6155311;23;19954;-68
2023/07/23 11:03:59;;;;;;;;;;;;;;;31.01;25.95;99777.03;6155375;23;19969;-67
2023/07/23 11:06:28;;;;;;;;;;;;;;;31.17;25.41;99774.34;6155527;23;19908;-67
2023/07/23 11:08:55;;;;;;;;;;;;;;;31.27;24.27;99771.88;6155072;23;19912;-67
2023/07/23 11:11:27;;;;;;;;;;;;;;;31.38;24.88;99772.22;6129043;23;19916;-67
2023/07/23 11:13:52;;;;;;;;;;;;;;;31.48;25.16;99767.34;6155325;23;19912;-67
2023/07/23 11:16:18;;;;;;;;;;;;;;;31.71;23.85;99768.44;6155112;23;20152;-67
2023/07/23 11:18:43;;;;;;;;;;;;;;;31.82;23.17;99766.75;6155403;23;19916;-67
2023/07/23 11:21:14;;;;;;;;;;;;;;;31.81;22.44;99765.13;6155025;23;19932;-67
2023/07/23 11:23:39;;;;;;;;;;;;;;;32.10;24.24;99770.72;6155084;23;19932;-67
2023/07/23 11:26:04;;;;;;;;;;;;;;;32.25;24.29;99764.34;6154592;23;20004;-66
2023/07/23 11:28:32;;;;;;;;;;;;;;;32.49;24.03;99768.13;6155091;23;19959;-66
2023/07/23 11:30:57;;;;;;;;;;;;;;;32.75;24.07;99762.84;6155079;23;19909;-67
2023/07/23 11:33:30;;;;;;;;;;;;;;;32.93;21.48;99757.69;6155461;23;19963;-67
2023/07/23 11:35:55;;;;;;;;;;;;;;;32.99;22.17;99753.47;6155129;23;19917;-67
2023/07/23 11:38:26;;;;;;;;;;;;;;;33.15;21.91;99752.63;6155045;23;19915;-67
2023/07/23 11:40:57;;;;;;;;;;;;;;;33.31;23.53;99755.38;6155269;23;20215;-67
2023/07/23 11:43:23;;;;;;;;;;;;;;;33.49;22.82;99742.63;6154939;23;20314;-67
2023/07/23 11:45:51;;;;;;;;;;;;;;;33.61;21.83;99752.81;6155026;23;19992;-67
2023/07/23 11:48:21;;;;;;;;;;;;;;;33.65;21.50;99738.97;6154268;23;19952;-67
2023/07/23 11:50:47;;;;;;;;;;;;;;;33.80;22.54;99740.84;6155185;23;19920;-67
2023/07/23 11:53:13;;;;;;;;;;;;;;;34.05;21.35;99738.56;6155218;23;19908;-67
2023/07/23 11:55:38;;;;;;;;;;;;;;;34.23;24.88;99743.66;6154631;23;19908;-67
2023/07/23 11:58:03;;;;;;;;;;;;;;;34.42;23.12;99742.81;6155237;23;19987;-66
2023/07/23 12:00:31;;;;;;;;;;;;;;;34.42;21.12;99743.59;6154944;23;19987;-67
2023/07/23 12:02:57;;;;;;;;;;;;;;;34.60;21.37;99734.69;6154696;23;19923;-67
2023/07/23 12:05:23;;;;;;;;;;;;;;;34.89;24.48;99733.19;6156860;23;19909;-66
2023/07/23 12:07:50;;;;;;;;;;;;;;;35.06;21.13;99731.81;6156969;23;20014;-66
2023/07/23 12:10:16;;;;;;;;;;;;;;;35.26;21.37;99738.09;6156983;23;19948;-66
2023/07/23 12:12:45;;;;;;;;;;;;;;;35.34;20.53;99733.41;6156961;23;20005;-66
2023/07/23 12:15:12;;;;;;;;;;;;;;;35.40;20.44;99732.69;6156349;23;19955;-67
2023/07/23 12:17:37;;;;;;;;;;;;;;;35.63;21.18;99726.19;6156877;23;19912;-67
2023/07/23 12:20:03;;;;;;;;;;;;;;;35.73;21.13;99727.50;6156599;23;20386;-67
2023/07/23 12:22:31;;;;;;;;;;;;;;;35.84;19.92;99720.03;6156638;23;19909;-67
2023/07/23 12:24:56;;;;;;;;;;;;;;;35.86;20.11;99729.63;6156352;23;19916;-67
2023/07/23 12:27:21;;;;;;;;;;;;;;;35.95;18.84;99720.94;6156288;23;20235;-67
2023/07/23 12:29:48;;;;;;;;;;;;;;;36.10;16.85;99726.69;6156275;23;19916;-67
2023/07/23 12:32:19;;;;;;;;;;;;;;;36.31;18.11;99728.88;6130842;23;19959;-67
2023/07/23 12:34:48;;;;;;;;;;;;;;;36.60;18.86;99721.50;6156070;23;20345;-67
2023/07/23 12:37:15;;;;;;;;;;;;;;;36.52;18.53;99717.88;6130463;23;19912;-67
2023/07/23 12:39:41;;;;;;;;;;;;;;;36.04;18.58;99713.03;6155950;23;20496;-67
2023/07/23 12:42:06;;;;;;;;;;;;;;;35.65;18.41;99719.00;6156096;23;19916;-67